Pace, Florida
Current Conditions -  °F | °C
As of 8:27 PM on Saturday 22 Nov 2014 (Local Time) from KNDZ Reporting Station
Overcast Overcast  
Wind Chill: 62°   Ceiling: 500
Heat Index: 62°   Visibility: 8mi
Dew Point: 58°   Wind: 8mph
Humidity: 86%   Direction: 50°NE
Pressure: 30.08"   Gusts: NA
Location:  30.6712°N, 87.194°W
Report Text: KNDZ 230227Z AUTO 05007KT 8SM OVC005 17/14 A3008 RMK AO2 RAE02 CIG 004V008 P0000 T01670144 $
Loading
Personal Weather Stations






























Interactive Weather Map New forecast layout! Learn more

10-Day Weather Forecast

Advertisements
Track Severe Weather on mobile